createdAt,value
2022-10-02T00:09:24.634Z,13.10
2022-10-02T00:11:58.808Z,13.10
2022-10-02T00:14:31.162Z,13.10
2022-10-02T00:17:02.168Z,13.00
2022-10-02T00:19:33.024Z,12.90
2022-10-02T00:22:27.312Z,12.90
2022-10-02T00:25:03.809Z,12.80
2022-10-02T00:27:46.658Z,12.80
2022-10-02T00:30:17.984Z,12.70
2022-10-02T00:33:00.621Z,12.70
2022-10-02T00:35:45.094Z,12.60
2022-10-02T00:38:24.201Z,12.50
2022-10-02T00:41:20.501Z,12.40
2022-10-02T00:43:59.913Z,12.30
2022-10-02T00:46:42.678Z,12.20
2022-10-02T00:49:31.811Z,12.10
2022-10-02T00:52:10.725Z,12.10
2022-10-02T00:55:03.298Z,12.10
2022-10-02T00:57:43.831Z,12.10
2022-10-02T01:00:14.929Z,12.20
2022-10-02T01:03:18.887Z,12.20
2022-10-02T01:05:47.275Z,12.30
2022-10-02T01:08:15.610Z,12.20
2022-10-02T01:10:44.125Z,12.20
2022-10-02T01:13:14.053Z,12.20
2022-10-02T01:15:54.668Z,12.20
2022-10-02T01:18:23.147Z,12.20
2022-10-02T01:20:53.896Z,12.10
2022-10-02T01:23:29.572Z,12.10
2022-10-02T01:25:59.834Z,12.20
2022-10-02T01:28:28.574Z,12.20
2022-10-02T01:31:05.722Z,12.20
2022-10-02T01:33:34.338Z,12.20
2022-10-02T01:36:03.107Z,12.20
2022-10-02T01:38:34.888Z,12.20
2022-10-02T01:41:04.320Z,12.20
2022-10-02T01:43:35.367Z,12.30
2022-10-02T01:46:20.470Z,12.40
2022-10-02T01:48:56.421Z,12.40
2022-10-02T01:51:50.375Z,12.40
2022-10-02T01:54:28.699Z,12.40
2022-10-02T01:57:08.331Z,12.50
2022-10-02T01:59:47.934Z,12.50
2022-10-02T02:02:23.478Z,12.60
2022-10-02T02:04:58.057Z,12.60
2022-10-02T02:07:35.449Z,12.70
2022-10-02T02:10:13.994Z,12.80
2022-10-02T02:12:46.724Z,12.80
2022-10-02T02:15:24.968Z,12.80
2022-10-02T02:17:58.634Z,12.80
2022-10-02T02:20:29.757Z,12.80
2022-10-02T02:23:05.776Z,12.70
2022-10-02T02:25:38.667Z,12.70
2022-10-02T02:28:12.560Z,12.60
2022-10-02T02:30:44.262Z,12.60
2022-10-02T02:33:16.544Z,12.50
2022-10-02T02:35:48.719Z,12.50
2022-10-02T02:38:23.163Z,12.40
2022-10-02T02:40:52.596Z,12.40
2022-10-02T02:43:28.457Z,12.40
2022-10-02T02:45:59.437Z,12.40
2022-10-02T02:48:30.823Z,12.40
2022-10-02T02:51:01.539Z,12.50
2022-10-02T02:53:36.266Z,12.50
2022-10-02T02:56:07.274Z,12.40
2022-10-02T02:58:40.890Z,12.40
2022-10-02T03:06:41.756Z,12.30
2022-10-02T03:09:14.723Z,12.30
2022-10-02T03:11:54.492Z,12.20
2022-10-02T03:14:54.828Z,12.10
2022-10-02T03:17:34.174Z,12.20
2022-10-02T03:20:09.624Z,12.20
2022-10-02T03:22:46.811Z,12.20
2022-10-02T03:25:21.808Z,12.30
2022-10-02T03:27:53.158Z,12.20
2022-10-02T03:30:22.087Z,12.30
2022-10-02T03:32:53.800Z,12.30
2022-10-02T03:35:23.641Z,12.30
2022-10-02T03:37:53.829Z,12.30
2022-10-02T03:40:24.323Z,12.30
2022-10-02T03:42:53.083Z,12.40
2022-10-02T03:45:39.323Z,12.40
2022-10-02T03:48:11.105Z,12.40
2022-10-02T03:50:39.185Z,12.40
2022-10-02T03:53:14.671Z,12.40
2022-10-02T03:55:47.643Z,12.40
2022-10-02T03:58:17.262Z,12.40
2022-10-02T04:00:53.531Z,12.50
2022-10-02T04:03:27.035Z,12.50
2022-10-02T04:06:01.601Z,12.50
2022-10-02T04:08:33.522Z,12.50
2022-10-02T04:11:09.454Z,12.50
2022-10-02T04:13:42.524Z,12.50
2022-10-02T04:16:16.757Z,12.50
2022-10-02T04:18:53.824Z,12.50
2022-10-02T04:21:34.381Z,12.50
2022-10-02T04:24:10.739Z,12.50
2022-10-02T04:26:42.995Z,12.50
2022-10-02T04:29:18.842Z,12.50
2022-10-02T04:31:52.050Z,12.40
2022-10-02T04:34:21.474Z,12.40
2022-10-02T04:37:06.031Z,12.40
2022-10-02T04:39:51.003Z,12.30
2022-10-02T04:42:35.787Z,12.30
2022-10-02T04:45:23.312Z,12.30
2022-10-02T04:48:15.038Z,12.30
2022-10-02T04:50:51.936Z,12.20
2022-10-02T04:53:51.611Z,12.20
2022-10-02T04:56:44.362Z,12.20
2022-10-02T04:59:34.353Z,12.20
2022-10-02T05:02:09.724Z,12.10
2022-10-02T05:05:05.240Z,12.10
2022-10-02T05:07:58.639Z,12.20
2022-10-02T05:10:47.287Z,12.30
2022-10-02T05:13:30.836Z,12.30
2022-10-02T05:16:11.505Z,12.30
2022-10-02T05:18:58.871Z,12.20
2022-10-02T05:21:41.468Z,12.20
2022-10-02T05:24:28.003Z,12.20
2022-10-02T05:27:27.197Z,12.10
2022-10-02T05:30:06.742Z,12.10
2022-10-02T05:33:03.878Z,12.20
2022-10-02T05:35:57.009Z,12.30
2022-10-02T05:38:51.809Z,12.30
2022-10-02T05:41:30.163Z,12.30
2022-10-02T05:44:03.343Z,12.20
2022-10-02T05:46:37.485Z,12.20
2022-10-02T05:49:13.425Z,12.20
2022-10-02T05:51:47.591Z,12.20
2022-10-02T05:54:28.153Z,12.20
2022-10-02T05:57:02.396Z,12.10
2022-10-02T05:59:37.624Z,12.10
2022-10-02T06:02:17.013Z,12.10
2022-10-02T06:04:50.476Z,12.00
2022-10-02T06:07:21.138Z,12.00
2022-10-02T06:09:53.081Z,12.10
2022-10-02T06:12:30.595Z,12.20
2022-10-02T06:15:04.065Z,12.40
2022-10-02T06:17:37.679Z,12.60
2022-10-02T06:20:16.412Z,12.80
2022-10-02T06:22:47.451Z,12.90
2022-10-02T06:25:21.122Z,12.80
2022-10-02T06:27:56.484Z,12.90
2022-10-02T06:30:24.668Z,12.90
2022-10-02T06:32:56.949Z,13.00
2022-10-02T06:35:43.111Z,13.00
2022-10-02T06:38:27.694Z,13.10
2022-10-02T06:41:13.319Z,13.20
2022-10-02T06:43:54.025Z,13.40
2022-10-02T06:46:28.853Z,13.50
2022-10-02T06:49:03.209Z,13.70
2022-10-02T06:51:40.703Z,14.50
2022-10-02T06:54:31.001Z,14.60
2022-10-02T06:57:21.107Z,14.50
2022-10-02T07:00:12.120Z,14.30
2022-10-02T07:03:06.706Z,14.40
2022-10-02T07:06:08.090Z,14.60
2022-10-02T07:08:47.986Z,14.70
2022-10-02T07:11:24.092Z,15.50
2022-10-02T07:14:10.719Z,15.60
2022-10-02T07:16:57.692Z,15.50
2022-10-02T07:19:57.973Z,15.30
2022-10-02T07:22:45.693Z,14.90
2022-10-02T07:25:52.576Z,14.90
2022-10-02T07:28:29.250Z,14.90
2022-10-02T07:31:03.862Z,15.40
2022-10-02T07:33:47.096Z,15.80
2022-10-02T07:36:22.630Z,16.30
2022-10-02T07:39:03.177Z,16.70
2022-10-02T07:41:48.500Z,16.90
2022-10-02T07:44:41.785Z,17.00
2022-10-02T07:47:20.418Z,17.00
2022-10-02T07:49:57.122Z,17.00
2022-10-02T07:52:34.785Z,16.90
2022-10-02T07:55:18.328Z,16.60
2022-10-02T07:57:56.182Z,16.40
2022-10-02T08:00:25.909Z,16.40
2022-10-02T08:03:00.254Z,16.30
2022-10-02T08:05:32.306Z,16.30
2022-10-02T08:08:04.855Z,16.30
2022-10-02T08:10:38.211Z,16.30
2022-10-02T08:13:14.377Z,16.40
2022-10-02T08:15:45.522Z,16.40
2022-10-02T08:18:34.176Z,16.30
2022-10-02T08:21:05.965Z,16.60
2022-10-02T08:23:40.378Z,16.90
2022-10-02T08:26:13.618Z,17.40
2022-10-02T08:28:45.599Z,18.00
2022-10-02T08:31:14.937Z,18.20
2022-10-02T08:33:43.330Z,18.30
2022-10-02T08:36:32.386Z,18.50
2022-10-02T08:39:14.669Z,18.50
2022-10-02T08:42:08.752Z,18.30
2022-10-02T08:45:10.301Z,18.10
2022-10-02T08:48:05.253Z,18.00
2022-10-02T08:51:23.570Z,17.90
2022-10-02T08:54:42.829Z,18.10
2022-10-02T08:57:25.313Z,18.20
2022-10-02T09:00:09.590Z,18.40
2022-10-02T09:03:36.407Z,18.00
2022-10-02T09:06:34.610Z,17.80
2022-10-02T09:09:59.870Z,17.90
2022-10-02T09:13:15.693Z,17.90
2022-10-02T09:15:47.011Z,18.20
2022-10-02T09:18:30.914Z,18.50
2022-10-02T09:21:15.608Z,19.00
2022-10-02T09:24:29.825Z,19.50
2022-10-02T09:27:40.569Z,20.10
2022-10-02T09:34:35.038Z,21.40
2022-10-02T09:37:30.930Z,21.60
2022-10-02T09:40:46.915Z,21.70
2022-10-02T09:44:01.483Z,21.10
2022-10-02T09:47:00.317Z,20.50
2022-10-02T09:50:02.943Z,20.00
2022-10-02T09:52:57.601Z,19.10
2022-10-02T09:56:01.192Z,18.60
2022-10-02T09:59:08.073Z,18.60
2022-10-02T10:01:51.662Z,18.70
2022-10-02T10:05:06.401Z,18.60
2022-10-02T10:08:09.111Z,18.50
2022-10-02T10:11:09.500Z,18.10
2022-10-02T10:14:12.928Z,18.00
2022-10-02T10:17:19.262Z,18.20
2022-10-02T10:20:22.886Z,18.30
2022-10-02T10:23:20.505Z,18.50
2022-10-02T10:26:34.460Z,18.80
2022-10-02T10:29:31.536Z,19.20
2022-10-02T10:32:32.021Z,19.20
2022-10-02T10:35:26.555Z,19.30
2022-10-02T10:38:33.309Z,19.10
2022-10-02T10:41:18.027Z,18.90
2022-10-02T10:44:20.079Z,18.60
2022-10-02T10:47:01.935Z,18.40
2022-10-02T10:50:13.279Z,18.50
2022-10-02T10:53:17.167Z,18.70
2022-10-02T10:56:13.067Z,19.00
2022-10-02T10:59:02.774Z,18.90
2022-10-02T11:01:39.727Z,18.80
2022-10-02T11:04:43.771Z,18.50
2022-10-02T11:07:30.239Z,18.30
2022-10-02T11:10:16.810Z,18.30
2022-10-02T11:13:15.858Z,18.40
2022-10-02T11:16:17.307Z,18.50
2022-10-02T11:19:19.207Z,18.60
2022-10-02T11:22:07.205Z,18.50
2022-10-02T11:25:02.007Z,18.50
2022-10-02T11:27:42.624Z,18.50
2022-10-02T11:30:23.366Z,18.50
2022-10-02T11:33:23.275Z,18.80
2022-10-02T11:36:22.123Z,19.00
2022-10-02T11:39:05.907Z,18.60
2022-10-02T11:41:51.523Z,18.30
2022-10-02T11:44:37.263Z,18.30
2022-10-02T11:47:48.251Z,18.10
2022-10-02T11:50:51.519Z,17.90
2022-10-02T11:53:53.168Z,18.10
2022-10-02T11:56:47.507Z,18.40
2022-10-02T11:59:29.704Z,18.40
2022-10-02T12:02:05.523Z,18.60
2022-10-02T12:04:43.695Z,18.70
2022-10-02T12:07:27.713Z,18.60
2022-10-02T12:10:14.991Z,18.50
2022-10-02T12:12:55.018Z,18.30
2022-10-02T12:15:31.006Z,18.40
2022-10-02T12:18:12.028Z,18.40
2022-10-02T12:21:09.719Z,18.40
2022-10-02T12:24:07.373Z,18.40
2022-10-02T12:27:00.243Z,18.60
2022-10-02T12:30:02.394Z,18.50
2022-10-02T12:32:57.325Z,18.60
2022-10-02T12:35:40.586Z,18.80
2022-10-02T12:38:23.462Z,19.00
2022-10-02T12:41:02.074Z,19.10
2022-10-02T12:44:00.650Z,19.30
2022-10-02T12:46:51.789Z,19.60
2022-10-02T12:49:34.047Z,19.70
2022-10-02T12:52:32.875Z,19.80
2022-10-02T12:55:34.187Z,19.80
2022-10-02T12:58:17.498Z,19.60
2022-10-02T13:01:30.826Z,19.40
2022-10-02T13:04:18.072Z,18.70
2022-10-02T13:07:13.672Z,18.10
2022-10-02T13:09:53.810Z,17.80
2022-10-02T13:12:55.675Z,17.60
2022-10-02T13:15:43.058Z,17.50
2022-10-02T13:18:33.795Z,17.30
2022-10-02T13:21:09.924Z,17.10
2022-10-02T13:23:47.790Z,17.00
2022-10-02T13:26:29.656Z,17.10
2022-10-02T13:29:18.179Z,17.30
2022-10-02T13:31:59.017Z,17.50
2022-10-02T13:34:44.923Z,17.40
2022-10-02T13:37:23.395Z,17.50
2022-10-02T13:40:12.741Z,17.60
2022-10-02T13:42:52.667Z,17.70
2022-10-02T13:45:29.506Z,17.70
2022-10-02T13:48:06.268Z,17.70
2022-10-02T13:50:44.217Z,17.70
2022-10-02T13:53:40.784Z,17.80
2022-10-02T13:56:18.939Z,17.80
2022-10-02T13:59:20.549Z,17.80
2022-10-02T14:02:06.055Z,17.90
2022-10-02T14:04:46.340Z,18.00
2022-10-02T14:07:31.067Z,18.00
2022-10-02T14:10:09.527Z,18.00
2022-10-02T14:12:52.368Z,18.00
2022-10-02T14:15:46.688Z,17.90
2022-10-02T14:18:29.556Z,18.00
2022-10-02T14:21:07.508Z,17.70
2022-10-02T14:23:49.667Z,17.60
2022-10-02T14:26:29.089Z,17.40
2022-10-02T14:29:21.311Z,17.30
2022-10-02T14:32:05.011Z,17.20
2022-10-02T14:35:01.945Z,17.00
2022-10-02T14:38:11.381Z,17.00
2022-10-02T14:40:47.051Z,17.00
2022-10-02T14:43:44.162Z,17.00
2022-10-02T14:46:22.209Z,17.00
2022-10-02T14:49:13.526Z,17.00
2022-10-02T14:52:01.364Z,17.00
2022-10-02T14:54:43.827Z,17.10
2022-10-02T14:57:44.244Z,17.10
2022-10-02T15:00:23.215Z,17.20
2022-10-02T15:03:26.020Z,17.20
2022-10-02T15:06:16.138Z,17.30
2022-10-02T15:08:49.335Z,17.30
2022-10-02T15:11:26.653Z,17.50
2022-10-02T15:14:01.436Z,17.50
2022-10-02T15:17:02.942Z,17.50
2022-10-02T15:19:38.537Z,17.40
2022-10-02T15:22:20.400Z,17.30
2022-10-02T15:24:55.521Z,17.10
2022-10-02T15:27:27.304Z,17.00
2022-10-02T15:30:15.697Z,16.80
2022-10-02T15:33:07.439Z,16.80
2022-10-02T15:36:17.377Z,16.90
2022-10-02T15:39:01.489Z,16.90
2022-10-02T15:41:43.311Z,16.90
2022-10-02T15:44:31.661Z,16.80
2022-10-02T15:47:10.291Z,16.70
2022-10-02T15:49:53.738Z,16.60
2022-10-02T15:52:34.872Z,16.50
2022-10-02T15:55:19.889Z,16.50
2022-10-02T15:57:58.643Z,16.40
2022-10-02T16:00:29.963Z,16.40
2022-10-02T16:03:04.776Z,16.30
2022-10-02T16:05:45.150Z,16.30
2022-10-02T16:08:33.312Z,16.30
2022-10-02T16:11:31.430Z,16.20
2022-10-02T16:14:07.649Z,16.20
2022-10-02T16:17:11.839Z,16.10
2022-10-02T16:19:55.359Z,16.10
2022-10-02T16:22:38.579Z,16.00
2022-10-02T16:25:29.933Z,16.00
2022-10-02T16:28:09.228Z,16.00
2022-10-02T16:31:02.463Z,15.90
2022-10-02T16:33:49.610Z,15.80
2022-10-02T16:36:31.974Z,15.80
2022-10-02T16:39:15.607Z,15.70
2022-10-02T16:42:01.006Z,15.60
2022-10-02T16:44:57.973Z,15.50
2022-10-02T16:47:32.540Z,15.40
2022-10-02T16:50:13.946Z,15.40
2022-10-02T16:52:47.724Z,15.30
2022-10-02T16:55:24.326Z,15.20
2022-10-02T16:58:02.765Z,15.10
2022-10-02T17:00:35.258Z,15.00
2022-10-02T17:03:11.830Z,14.90
2022-10-02T17:05:49.714Z,14.90
2022-10-02T17:08:31.312Z,14.80
2022-10-02T17:11:17.775Z,14.70
2022-10-02T17:13:56.285Z,14.60
2022-10-02T17:16:32.207Z,14.50
2022-10-02T17:19:14.746Z,14.40
2022-10-02T17:21:48.848Z,14.30
2022-10-02T17:24:36.261Z,14.20
2022-10-02T17:27:19.202Z,14.10
2022-10-02T17:29:55.369Z,14.10
2022-10-02T17:32:36.757Z,14.00
2022-10-02T17:35:15.794Z,13.90
2022-10-02T17:38:10.561Z,13.80
2022-10-02T17:40:46.015Z,13.70
2022-10-02T17:43:25.636Z,13.70
2022-10-02T17:46:05.162Z,13.70
2022-10-02T17:48:44.800Z,13.60
2022-10-02T17:51:51.756Z,13.60
2022-10-02T17:54:55.566Z,13.50
2022-10-02T17:57:37.592Z,13.30
2022-10-02T18:00:13.123Z,13.20
2022-10-02T18:03:04.560Z,13.20
2022-10-02T18:05:48.896Z,13.10
2022-10-02T18:08:34.316Z,13.00
2022-10-02T18:11:10.294Z,13.00
2022-10-02T18:13:59.855Z,13.10
2022-10-02T18:16:39.030Z,13.00
2022-10-02T18:19:23.914Z,13.10
2022-10-02T18:22:22.593Z,13.00
2022-10-02T18:25:11.836Z,13.00
2022-10-02T18:28:02.547Z,13.00
2022-10-02T18:30:40.505Z,12.90
2022-10-02T18:33:53.775Z,12.90
2022-10-02T18:36:37.205Z,13.00
2022-10-02T18:39:19.144Z,12.90
2022-10-02T18:41:57.847Z,12.80
2022-10-02T18:44:45.208Z,12.80
2022-10-02T18:47:31.429Z,12.80
2022-10-02T18:50:10.966Z,12.70
2022-10-02T18:52:57.070Z,12.60
2022-10-02T18:55:56.557Z,12.60
2022-10-02T18:58:38.522Z,12.50
2022-10-02T19:01:39.543Z,12.50
2022-10-02T19:04:27.943Z,12.40
2022-10-02T19:07:05.069Z,12.30
2022-10-02T19:09:33.627Z,12.20
2022-10-02T19:12:13.694Z,12.20
2022-10-02T19:14:45.860Z,12.10
2022-10-02T19:17:18.049Z,12.10
2022-10-02T19:19:46.130Z,12.10
2022-10-02T19:22:22.054Z,12.00
2022-10-02T19:24:53.271Z,12.00
2022-10-02T19:27:28.331Z,12.00
2022-10-02T19:29:58.317Z,12.00
2022-10-02T19:32:31.405Z,12.00
2022-10-02T19:35:08.413Z,11.90
2022-10-02T19:37:42.308Z,11.80
2022-10-02T19:40:17.605Z,11.80
2022-10-02T19:42:50.145Z,11.70
2022-10-02T19:45:26.519Z,11.70
2022-10-02T19:47:59.773Z,11.60
2022-10-02T19:50:39.801Z,11.60
2022-10-02T19:53:17.643Z,11.50
2022-10-02T19:55:47.395Z,11.50
2022-10-02T19:58:21.192Z,11.50
2022-10-02T20:00:51.619Z,11.40
2022-10-02T20:03:23.386Z,11.40
2022-10-02T20:05:54.766Z,11.30
2022-10-02T20:08:27.250Z,11.30
2022-10-02T20:11:03.246Z,11.20
2022-10-02T20:13:41.668Z,11.20
2022-10-02T20:16:33.735Z,11.10
2022-10-02T20:19:04.130Z,11.10
2022-10-02T20:21:39.084Z,11.00
2022-10-02T20:24:15.613Z,11.10
2022-10-02T20:26:47.607Z,11.10
2022-10-02T20:29:20.666Z,11.10
2022-10-02T20:31:51.148Z,11.10
2022-10-02T20:34:28.369Z,11.00
2022-10-02T20:37:05.360Z,11.10
2022-10-02T20:39:37.485Z,11.10
2022-10-02T20:42:13.453Z,11.00
2022-10-02T20:44:41.769Z,11.00
2022-10-02T20:47:43.064Z,10.90
2022-10-02T20:50:27.574Z,10.90
2022-10-02T20:53:33.514Z,10.80
2022-10-02T20:56:09.028Z,10.80
2022-10-02T20:58:58.459Z,10.70
2022-10-02T21:01:37.458Z,10.70
2022-10-02T21:04:40.924Z,10.70
2022-10-02T21:07:40.070Z,10.70
2022-10-02T21:10:49.739Z,10.60
2022-10-02T21:14:04.620Z,10.60
2022-10-02T21:17:10.840Z,10.50
2022-10-02T21:20:27.923Z,10.40
2022-10-02T21:23:32.109Z,10.40
2022-10-02T21:26:26.801Z,10.40
2022-10-02T21:29:28.444Z,10.40
2022-10-02T21:32:25.593Z,10.50
2022-10-02T21:35:14.278Z,10.50
2022-10-02T21:38:01.090Z,10.60
2022-10-02T21:41:19.649Z,10.70
2022-10-02T21:44:32.493Z,10.70
2022-10-02T21:47:28.582Z,10.60
2022-10-02T21:50:31.579Z,10.60
2022-10-02T22:01:06.342Z,10.40
2022-10-02T22:04:09.009Z,10.30
2022-10-02T22:06:50.128Z,10.20
2022-10-02T22:09:42.308Z,10.10
2022-10-02T22:12:27.026Z,10.10
2022-10-02T22:15:05.838Z,10.00
2022-10-02T22:17:45.876Z,10.00
2022-10-02T22:20:28.826Z,10.00
2022-10-02T22:23:21.254Z,10.00
2022-10-02T22:26:05.770Z,9.90
2022-10-02T22:28:40.938Z,9.90
2022-10-02T22:31:39.120Z,9.90
2022-10-02T22:34:21.702Z,9.80
2022-10-02T22:37:29.227Z,9.80
2022-10-02T22:40:04.761Z,9.80
2022-10-02T22:42:40.344Z,9.70
2022-10-02T22:45:19.628Z,9.70
2022-10-02T22:47:55.497Z,9.70
2022-10-02T22:50:31.771Z,9.60
2022-10-02T22:53:10.546Z,9.60
2022-10-02T22:55:46.936Z,9.60
2022-10-02T22:58:19.971Z,9.60
2022-10-02T23:00:57.634Z,9.50
2022-10-02T23:03:32.662Z,9.50
2022-10-02T23:06:07.661Z,9.50
2022-10-02T23:08:40.195Z,9.40
2022-10-02T23:11:14.505Z,9.40
2022-10-02T23:13:47.973Z,9.30
2022-10-02T23:16:24.654Z,9.30
2022-10-02T23:18:59.985Z,9.30
2022-10-02T23:21:45.996Z,9.20
2022-10-02T23:24:28.501Z,9.20
2022-10-02T23:27:10.340Z,9.20
2022-10-02T23:29:50.925Z,9.20
2022-10-02T23:32:26.957Z,9.20
2022-10-02T23:35:04.019Z,9.10
2022-10-02T23:37:43.839Z,9.10
2022-10-02T23:40:22.300Z,9.10
2022-10-02T23:42:54.275Z,9.00
2022-10-02T23:45:27.298Z,9.00
2022-10-02T23:48:01.151Z,9.00
2022-10-02T23:50:38.371Z,8.90
2022-10-02T23:53:36.701Z,8.90
2022-10-02T23:56:32.016Z,8.90
2022-10-02T23:59:17.358Z,8.80
